Idaho Falls, Idaho
Current Conditions -  °F | °C
As of 8:53 PM on Friday 24 Oct 2014 (Local Time) from KIDA Reporting Station
Clear Clear  
Wind Chill: 55°   Ceiling: Unl
Heat Index: 55°   Visibility: 10mi
Dew Point: 32°   Wind: 5mph
Humidity: 42%   Direction: 210°SSW
Pressure: 30.1"   Gusts: NA
Location:  43.49°N, 112.04°W
Report Text: KIDA 250253Z AUTO 21004KT 10SM CLR 13/00 A3010 RMK AO2 SLP177 T01280000 53004
Loading
Personal Weather Stations






























Interactive Weather Map
Tropical Storm Tracking
New forecast layout! Learn more

10-Day Weather Forecast

Advertisements
Track Severe Weather on mobile